CLT TRACON Summary / KCLT TAF
CLT TRACON Summary:
A stationary front will remain in place over the TRACON today, supporting isolated thunderstorms this afternoon east fo CLT. Expect VFR conditions with surface winds from the southwest at 3-5kts. Flight hazards in the TRACON airspace outside of convection: None expected.

Updated:7/1/2016 12:00 PM
CLT Terminal Aerodrome Forecast:

FTUS31 KCLT 011727
KCLT 011725Z 0118/0218 23006KT P6SM SCT025 SCT080
     FM020000 19005KT P6SM SCT080
     FM021000 33003KT 5SM BR SCT250
     FM021400 05004KT P6SM FEW060 SCT250 PROB30 0216/0218 4SM
      -TSRA
      BKN060CB
CLT TRACON Area Remark:
ISOLATED TS POSSIBLE E/SE/S/SW AFTER 18Z.
Convective Gate Forecast / Collaborative Convective Forecast Product / Vertical Wind Profile
Convective Gate Forecast
SIGMETS/ Southeast Radar & Satellite Loops (click on image to enlarge)

Southeast Radar Loop

 



USA.gov is the U.S. government's official web portal to all federal, state and local government web resources and services.